createdAt,value
2023-02-03T00:00:10.313Z,6.53
2023-02-03T00:01:12.279Z,6.15
2023-02-03T00:02:14.297Z,6.60
2023-02-03T00:03:16.312Z,5.45
2023-02-03T00:04:20.680Z,5.80
2023-02-03T00:05:22.529Z,6.85
2023-02-03T00:06:25.654Z,5.95
2023-02-03T00:07:27.520Z,6.15
2023-02-03T00:08:33.319Z,5.53
2023-02-03T00:09:34.899Z,6.78
2023-02-03T00:10:39.234Z,6.20
2023-02-03T00:11:40.846Z,5.55
2023-02-03T00:12:44.676Z,5.82
2023-02-03T00:13:49.999Z,6.03
2023-02-03T00:14:52.253Z,6.25
2023-02-03T00:15:53.836Z,5.47
2023-02-03T00:16:55.391Z,5.72
2023-02-03T00:17:57.006Z,5.93
2023-02-03T00:18:59.309Z,6.40
2023-02-03T00:20:03.130Z,6.18
2023-02-03T00:21:05.802Z,6.35
2023-02-03T00:22:08.603Z,5.20
2023-02-03T00:23:11.542Z,6.82
2023-02-03T00:24:14.560Z,5.65
2023-02-03T00:25:20.662Z,5.90
2023-02-03T00:26:24.840Z,5.78
2023-02-03T00:27:29.539Z,7.20
2023-02-03T00:28:35.157Z,5.88
2023-02-03T00:29:37.287Z,6.45
2023-02-03T00:30:39.865Z,6.10
2023-02-03T00:31:44.613Z,5.97
2023-02-03T00:32:46.253Z,6.88
2023-02-03T00:33:53.575Z,7.63
2023-02-03T00:34:56.715Z,6.00
2023-02-03T00:36:07.613Z,6.68
2023-02-03T00:37:11.796Z,6.67
2023-02-03T00:38:14.235Z,5.97
2023-02-03T00:39:19.862Z,5.00
2023-02-03T00:40:25.606Z,6.95
2023-02-03T00:41:31.234Z,7.07
2023-02-03T00:42:35.634Z,5.90
2023-02-03T00:43:38.475Z,7.32
2023-02-03T00:44:40.022Z,6.53
2023-02-03T00:45:42.862Z,6.15
2023-02-03T00:46:47.839Z,5.47
2023-02-03T00:47:49.420Z,5.90
2023-02-03T00:48:51.089Z,6.00
2023-02-03T00:49:52.711Z,5.78
2023-02-03T00:50:56.720Z,6.45
2023-02-03T00:51:59.292Z,5.65
2023-02-03T00:53:02.443Z,6.60
2023-02-03T00:54:04.624Z,6.72
2023-02-03T00:55:06.972Z,5.72
2023-02-03T00:56:15.374Z,6.93
2023-02-03T00:57:18.199Z,6.40
2023-02-03T00:58:22.851Z,6.32
2023-02-03T00:59:28.719Z,5.35
2023-02-03T01:00:30.279Z,6.13
2023-02-03T01:01:31.898Z,5.35
2023-02-03T01:02:36.610Z,5.50
2023-02-03T01:03:39.318Z,5.35
2023-02-03T01:04:41.305Z,5.47
2023-02-03T01:05:43.268Z,5.25
2023-02-03T01:06:47.574Z,6.22
2023-02-03T01:07:52.139Z,5.75
2023-02-03T01:08:54.500Z,5.75
2023-02-03T01:09:59.864Z,5.07
2023-02-03T01:11:07.044Z,5.00
2023-02-03T01:12:11.683Z,5.05
2023-02-03T01:13:13.303Z,5.47
2023-02-03T01:14:16.016Z,5.63
2023-02-03T01:15:17.690Z,5.20
2023-02-03T01:16:20.987Z,4.57
2023-02-03T01:17:27.051Z,4.90
2023-02-03T01:18:29.360Z,4.70
2023-02-03T01:19:33.560Z,5.28
2023-02-03T01:20:35.348Z,5.50
2023-02-03T01:21:38.808Z,4.55
2023-02-03T01:22:43.015Z,4.53
2023-02-03T01:23:48.325Z,5.68
2023-02-03T01:24:51.384Z,5.18
2023-02-03T01:25:52.933Z,5.65
2023-02-03T01:26:54.493Z,5.00
2023-02-03T01:27:58.695Z,5.47
2023-02-03T01:29:02.045Z,4.72
2023-02-03T01:30:05.028Z,4.95
2023-02-03T01:31:30.123Z,4.55
2023-02-03T01:32:31.905Z,4.90
2023-02-03T01:33:33.504Z,4.72
2023-02-03T01:34:35.159Z,6.90
2023-02-03T01:35:37.303Z,5.70
2023-02-03T01:36:39.619Z,4.95
2023-02-03T01:37:41.182Z,5.45
2023-02-03T01:38:45.601Z,5.38
2023-02-03T01:39:48.244Z,5.65
2023-02-03T01:40:50.274Z,5.68
2023-02-03T01:41:55.425Z,6.65
2023-02-03T01:43:00.051Z,5.18
2023-02-03T01:44:56.042Z,6.72
2023-02-03T01:45:59.912Z,6.00
2023-02-03T01:47:03.923Z,6.10
2023-02-03T01:48:07.942Z,5.22
2023-02-03T01:49:22.596Z,5.22
2023-02-03T01:50:33.659Z,6.00
2023-02-03T01:51:39.889Z,5.22
2023-02-03T01:52:47.692Z,5.95
2023-02-03T01:53:53.536Z,5.38
2023-02-03T01:54:58.627Z,4.78
2023-02-03T01:56:05.033Z,6.80
2023-02-03T01:57:16.321Z,5.25
2023-02-03T01:58:39.559Z,5.53
2023-02-03T01:59:43.113Z,4.35
2023-02-03T02:00:47.609Z,5.47
2023-02-03T02:01:52.778Z,4.95
2023-02-03T02:02:59.158Z,4.50
2023-02-03T02:04:06.780Z,4.72
2023-02-03T02:05:15.210Z,4.68
2023-02-03T02:06:17.604Z,4.40
2023-02-03T02:07:20.649Z,4.40
2023-02-03T02:08:32.706Z,4.10
2023-02-03T02:09:36.780Z,3.75
2023-02-03T02:10:40.857Z,3.90
2023-02-03T02:11:46.700Z,3.50
2023-02-03T02:12:52.646Z,3.25
2023-02-03T02:14:00.323Z,3.53
2023-02-03T02:15:02.853Z,2.83
2023-02-03T02:16:23.924Z,5.90
2023-02-03T02:17:52.527Z,3.13
2023-02-03T02:19:15.819Z,2.85
2023-02-03T02:20:55.968Z,2.72
2023-02-03T02:22:19.860Z,3.05
2023-02-03T02:23:43.821Z,2.15
2023-02-03T02:25:03.779Z,2.20
2023-02-03T02:26:38.844Z,1.95
2023-02-03T02:28:23.103Z,2.28
2023-02-03T02:31:53.888Z,1.40
2023-02-03T02:33:13.280Z,1.77
2023-02-03T02:34:39.329Z,1.35
2023-02-03T02:36:07.810Z,2.15
2023-02-03T02:37:31.173Z,1.75
2023-02-03T02:38:39.874Z,2.63
2023-02-03T02:40:21.950Z,1.48
2023-02-03T02:41:31.848Z,2.47
2023-02-03T02:42:44.862Z,2.33
2023-02-03T02:44:09.267Z,2.45
2023-02-03T02:45:17.815Z,2.70
2023-02-03T02:46:42.892Z,1.73
2023-02-03T02:47:45.450Z,1.98
2023-02-03T02:49:35.128Z,1.85
2023-02-03T02:50:42.141Z,1.85
2023-02-03T02:51:45.431Z,2.40
2023-02-03T02:52:50.504Z,2.15
2023-02-03T02:54:03.044Z,2.20
2023-02-03T02:55:14.895Z,1.70
2023-02-03T02:56:19.662Z,3.97
2023-02-03T02:57:24.384Z,2.05
2023-02-03T02:58:29.284Z,2.33
2023-02-03T02:59:31.957Z,2.83
2023-02-03T03:00:36.490Z,3.13
2023-02-03T03:01:38.997Z,3.50
2023-02-03T03:02:43.200Z,3.40
2023-02-03T03:03:45.352Z,3.33
2023-02-03T03:04:51.039Z,3.00
2023-02-03T03:06:04.808Z,3.10
2023-02-03T03:07:18.378Z,3.42
2023-02-03T03:08:28.259Z,3.70
2023-02-03T03:09:44.374Z,4.00
2023-02-03T03:10:47.211Z,4.60
2023-02-03T03:11:55.179Z,4.10
2023-02-03T03:13:04.142Z,4.32
2023-02-03T03:14:08.529Z,3.40
2023-02-03T03:15:16.486Z,4.20
2023-02-03T03:16:23.722Z,4.68
2023-02-03T03:17:34.205Z,4.40
2023-02-03T03:18:51.458Z,3.70
2023-02-03T03:19:56.685Z,3.42
2023-02-03T03:21:06.891Z,4.28
2023-02-03T03:22:13.606Z,4.45
2023-02-03T03:23:29.070Z,4.57
2023-02-03T03:24:47.732Z,4.00
2023-02-03T03:26:02.114Z,3.88
2023-02-03T03:27:23.499Z,3.97
2023-02-03T03:28:33.581Z,4.85
2023-02-03T03:29:46.945Z,4.85
2023-02-03T03:30:48.706Z,4.43
2023-02-03T03:31:53.124Z,5.00
2023-02-03T03:32:56.942Z,4.45
2023-02-03T03:33:59.405Z,4.95
2023-02-03T03:35:03.349Z,4.80
2023-02-03T03:36:28.955Z,4.47
2023-02-03T03:38:18.736Z,5.43
2023-02-03T03:40:00.354Z,4.45
2023-02-03T03:41:08.213Z,4.80
2023-02-03T03:42:26.815Z,5.50
2023-02-03T03:43:32.204Z,3.80
2023-02-03T03:44:39.980Z,5.05
2023-02-03T03:45:55.985Z,4.55
2023-02-03T03:47:25.548Z,5.30
2023-02-03T03:48:51.240Z,4.65
2023-02-03T03:49:58.717Z,4.75
2023-02-03T03:51:09.121Z,4.78
2023-02-03T03:52:17.335Z,4.55
2023-02-03T03:53:23.418Z,4.32
2023-02-03T03:54:27.854Z,4.72
2023-02-03T03:55:33.180Z,5.00
2023-02-03T03:56:44.444Z,4.65
2023-02-03T03:58:02.987Z,4.53
2023-02-03T03:59:09.621Z,4.53
2023-02-03T04:00:19.258Z,6.03
2023-02-03T04:01:23.614Z,4.50
2023-02-03T04:02:26.775Z,5.13
2023-02-03T04:03:49.440Z,4.25
2023-02-03T04:04:52.822Z,4.82
2023-02-03T04:05:54.523Z,6.13
2023-02-03T04:06:56.502Z,4.60
2023-02-03T04:07:59.462Z,4.55
2023-02-03T04:09:02.306Z,5.25
2023-02-03T04:10:15.835Z,5.13
2023-02-03T04:11:38.101Z,4.28
2023-02-03T04:12:43.358Z,4.53
2023-02-03T04:13:45.350Z,4.97
2023-02-03T04:14:49.285Z,4.70
2023-02-03T04:15:53.713Z,4.95
2023-02-03T04:17:00.387Z,4.18
2023-02-03T04:18:06.339Z,5.20
2023-02-03T04:19:08.933Z,4.30
2023-02-03T04:20:12.013Z,4.28
2023-02-03T04:21:14.739Z,4.32
2023-02-03T04:22:18.905Z,4.50
2023-02-03T04:23:23.777Z,5.07
2023-02-03T04:24:25.429Z,4.78
2023-02-03T04:25:27.161Z,4.50
2023-02-03T04:26:30.962Z,5.10
2023-02-03T04:27:35.180Z,5.28
2023-02-03T04:28:39.857Z,3.88
2023-02-03T04:29:41.448Z,4.40
2023-02-03T04:30:43.692Z,4.10
2023-02-03T04:31:45.775Z,3.70
2023-02-03T04:32:48.832Z,4.03
2023-02-03T04:33:51.788Z,3.53
2023-02-03T04:34:53.357Z,3.85
2023-02-03T04:35:56.363Z,3.67
2023-02-03T04:36:58.342Z,3.63
2023-02-03T04:38:01.027Z,5.10
2023-02-03T04:39:05.906Z,3.47
2023-02-03T04:40:09.675Z,2.92
2023-02-03T04:41:13.891Z,3.85
2023-02-03T04:42:17.392Z,3.20
2023-02-03T04:43:19.434Z,4.43
2023-02-03T04:44:22.256Z,3.53
2023-02-03T04:45:23.972Z,3.03
2023-02-03T04:46:25.778Z,3.75
2023-02-03T04:47:27.370Z,3.03
2023-02-03T04:48:30.321Z,3.55
2023-02-03T04:49:34.115Z,2.70
2023-02-03T04:50:36.812Z,2.97
2023-02-03T04:51:39.420Z,2.42
2023-02-03T04:52:42.129Z,4.32
2023-02-03T04:53:44.463Z,2.30
2023-02-03T04:54:45.995Z,2.95
2023-02-03T04:55:49.143Z,2.90
2023-02-03T04:56:51.388Z,2.92
2023-02-03T04:57:59.907Z,2.38
2023-02-03T04:59:04.118Z,2.13
2023-02-03T05:00:11.523Z,3.00
2023-02-03T05:01:14.324Z,2.58
2023-02-03T05:02:18.919Z,2.78
2023-02-03T05:03:26.247Z,1.92
2023-02-03T05:04:30.639Z,2.05
2023-02-03T05:05:32.244Z,1.50
2023-02-03T05:06:37.289Z,2.67
2023-02-03T05:07:41.678Z,2.10
2023-02-03T05:08:43.419Z,2.10
2023-02-03T05:09:45.483Z,3.60
2023-02-03T05:10:48.261Z,3.05
2023-02-03T05:11:52.392Z,2.05
2023-02-03T05:12:53.954Z,2.65
2023-02-03T05:13:56.529Z,2.92
2023-02-03T05:15:00.765Z,2.55
2023-02-03T05:16:04.664Z,2.03
2023-02-03T05:17:06.383Z,1.75
2023-02-03T05:18:11.385Z,2.17
2023-02-03T05:19:13.883Z,1.60
2023-02-03T05:20:16.790Z,3.05
2023-02-03T05:21:23.279Z,1.98
2023-02-03T05:22:24.908Z,2.22
2023-02-03T05:23:26.538Z,1.98
2023-02-03T05:24:28.096Z,1.92
2023-02-03T05:25:31.329Z,2.17
2023-02-03T05:26:34.829Z,2.03
2023-02-03T05:27:42.447Z,2.50
2023-02-03T05:28:46.661Z,2.20
2023-02-03T05:29:51.204Z,2.00
2023-02-03T05:30:55.763Z,2.15
2023-02-03T05:32:00.968Z,2.00
2023-02-03T05:33:03.482Z,1.75
2023-02-03T05:34:06.459Z,1.83
2023-02-03T05:35:09.527Z,2.10
2023-02-03T05:36:12.898Z,2.35
2023-02-03T05:37:17.131Z,2.03
2023-02-03T05:38:18.759Z,1.83
2023-02-03T05:39:20.471Z,1.75
2023-02-03T05:40:43.314Z,1.70
2023-02-03T05:41:58.353Z,1.88
2023-02-03T05:43:03.715Z,2.00
2023-02-03T05:44:05.292Z,1.50
2023-02-03T05:45:07.153Z,2.45
2023-02-03T05:46:09.526Z,1.45
2023-02-03T05:47:12.471Z,1.50
2023-02-03T05:48:16.582Z,1.50
2023-02-03T05:49:19.654Z,2.25
2023-02-03T05:50:23.278Z,1.95
2023-02-03T05:51:25.513Z,1.90
2023-02-03T05:52:28.479Z,1.88
2023-02-03T05:53:30.046Z,2.67
2023-02-03T05:54:31.788Z,2.15
2023-02-03T05:55:35.502Z,2.15
2023-02-03T05:56:37.195Z,1.90
2023-02-03T11:32:47.205Z,1.58
2023-02-03T16:53:58.042Z,9.35
2023-02-03T16:54:59.744Z,6.38
2023-02-03T16:56:07.092Z,8.85
2023-02-03T16:57:08.763Z,11.27
2023-02-03T16:58:12.550Z,8.27
2023-02-03T17:01:54.580Z,7.60
2023-02-03T17:02:58.538Z,6.78
2023-02-03T17:04:02.726Z,7.70
2023-02-03T17:05:04.458Z,9.10
2023-02-03T17:06:09.511Z,13.82
2023-02-03T17:07:11.161Z,13.32
2023-02-03T17:08:15.575Z,10.82
2023-02-03T17:09:22.570Z,10.95
2023-02-03T17:10:24.727Z,10.15
2023-02-03T17:11:27.114Z,11.70
2023-02-03T17:12:31.488Z,14.35
2023-02-03T17:13:33.738Z,10.35
2023-02-03T17:14:35.368Z,12.82
2023-02-03T17:15:42.691Z,14.73
2023-02-03T17:16:45.328Z,10.18
2023-02-03T17:17:48.487Z,16.17
2023-02-03T17:18:50.419Z,10.63
2023-02-03T17:19:53.131Z,11.15
2023-02-03T17:20:58.096Z,15.95
2023-02-03T17:22:00.566Z,13.68
2023-02-03T17:23:02.208Z,14.68
2023-02-03T17:24:04.265Z,16.60
2023-02-03T17:25:07.862Z,15.05
2023-02-03T17:26:10.823Z,12.70
2023-02-03T17:27:13.122Z,12.63
2023-02-03T17:28:16.313Z,12.93
2023-02-03T17:29:18.111Z,12.77
2023-02-03T17:30:20.014Z,11.20
2023-02-03T17:31:21.821Z,13.65
2023-02-03T17:32:23.547Z,11.65
2023-02-03T17:33:29.109Z,12.80
2023-02-03T17:34:34.987Z,15.23
2023-02-03T17:35:36.551Z,12.63
2023-02-03T17:36:40.468Z,12.13
2023-02-03T17:37:42.248Z,16.08
2023-02-03T17:54:07.517Z,11.07
2023-02-03T17:55:09.436Z,12.73
2023-02-03T17:56:16.574Z,13.80
2023-02-03T17:57:18.184Z,12.77
2023-02-03T17:58:20.776Z,15.00
2023-02-03T17:59:22.363Z,10.25
2023-02-03T18:00:25.260Z,10.80
2023-02-03T18:01:30.338Z,10.55
2023-02-03T18:02:33.305Z,13.43
2023-02-03T18:03:34.933Z,12.05
2023-02-03T18:04:37.149Z,15.13
2023-02-03T18:05:39.639Z,15.63
2023-02-03T18:06:41.295Z,15.88
2023-02-03T18:07:43.304Z,13.55
2023-02-03T18:08:48.845Z,11.55
2023-02-03T18:09:52.181Z,11.70
2023-02-03T18:10:55.081Z,10.38
2023-02-03T18:11:57.107Z,12.48
2023-02-03T18:12:58.639Z,13.63
2023-02-03T18:14:00.638Z,20.35
2023-02-03T18:15:02.351Z,13.00
2023-02-03T18:16:05.801Z,14.20
2023-02-03T18:17:08.382Z,15.32
2023-02-03T18:18:10.245Z,13.52
2023-02-03T18:19:14.403Z,11.25
2023-02-03T18:20:17.312Z,12.32
2023-02-03T18:21:21.518Z,14.07
2023-02-03T18:22:23.353Z,12.02
2023-02-03T18:23:24.975Z,11.85
2023-02-03T18:24:29.134Z,10.32
2023-02-03T18:25:35.514Z,9.98
2023-02-03T18:26:47.337Z,12.48
2023-02-03T18:27:52.272Z,12.05
2023-02-03T18:28:55.101Z,10.00
2023-02-03T18:29:57.420Z,11.77
2023-02-03T18:31:12.104Z,11.27
2023-02-03T18:32:16.377Z,11.63
2023-02-03T18:33:18.261Z,10.20
2023-02-03T18:34:19.974Z,11.15
2023-02-03T18:35:22.173Z,9.00
2023-02-03T18:36:24.910Z,13.07
2023-02-03T18:37:28.945Z,12.50
2023-02-03T18:38:36.391Z,11.63
2023-02-03T18:39:38.045Z,15.55
2023-02-03T18:40:39.716Z,10.00
2023-02-03T18:41:41.456Z,8.82
2023-02-03T18:42:44.226Z,13.05
2023-02-03T18:43:49.147Z,13.38
2023-02-03T18:44:50.716Z,11.80
2023-02-03T18:45:53.143Z,11.43
2023-02-03T18:46:55.887Z,11.45
2023-02-03T18:47:57.464Z,10.93
2023-02-03T18:48:59.932Z,10.15
2023-02-03T18:50:01.641Z,15.55
2023-02-03T18:51:04.465Z,10.93
2023-02-03T18:52:06.332Z,9.10
2023-02-03T18:53:11.144Z,10.38
2023-02-03T18:54:13.346Z,9.60
2023-02-03T18:55:15.008Z,11.48
2023-02-03T18:56:23.251Z,7.50
2023-02-03T18:57:26.577Z,9.45
2023-02-03T18:58:29.075Z,9.95
2023-02-03T18:59:31.324Z,9.05
2023-02-03T19:00:33.402Z,13.45
2023-02-03T19:01:35.854Z,12.07
2023-02-03T19:02:41.498Z,10.88
2023-02-03T19:03:43.542Z,9.38
2023-02-03T19:04:45.099Z,13.05
2023-02-03T19:05:46.705Z,11.43
2023-02-03T19:06:48.548Z,9.85
2023-02-03T19:07:50.206Z,10.52
2023-02-03T19:08:51.999Z,13.85
2023-02-03T19:09:53.612Z,14.50
2023-02-03T19:10:55.414Z,9.38
2023-02-03T19:11:58.855Z,9.88
2023-02-03T19:13:02.988Z,8.23
2023-02-03T19:14:04.563Z,9.38
2023-02-03T19:15:08.810Z,7.60
2023-02-03T19:16:13.617Z,11.80
2023-02-03T19:17:27.009Z,12.60
2023-02-03T19:18:30.690Z,11.57
2023-02-03T19:19:32.339Z,11.18
2023-02-03T19:20:34.033Z,10.10
2023-02-03T19:21:35.719Z,12.15
2023-02-03T19:22:38.521Z,13.77
2023-02-03T19:23:41.431Z,12.32
2023-02-03T19:24:45.336Z,10.67
2023-02-03T19:25:51.205Z,9.90
2023-02-03T19:26:53.769Z,11.70
2023-02-03T19:27:55.508Z,8.45
2023-02-03T19:28:57.181Z,14.95
2023-02-03T19:31:15.801Z,9.32
2023-02-03T19:32:18.275Z,13.55
2023-02-03T19:33:25.210Z,11.55
2023-02-03T19:34:28.428Z,9.60
2023-02-03T19:35:33.159Z,9.97
2023-02-03T19:36:35.245Z,13.65
2023-02-03T19:37:37.724Z,9.93
2023-02-03T19:38:39.502Z,11.30
2023-02-03T19:39:41.553Z,12.55
2023-02-03T19:40:43.219Z,9.43
2023-02-03T19:41:44.780Z,10.52
2023-02-03T19:42:46.395Z,14.07
2023-02-03T19:43:51.968Z,11.27
2023-02-03T19:44:53.589Z,12.55
2023-02-03T19:45:55.176Z,13.02
2023-02-03T19:46:59.314Z,9.40
2023-02-03T19:48:03.104Z,10.00
2023-02-03T19:49:12.399Z,9.50
2023-02-03T19:50:16.571Z,11.85
2023-02-03T19:51:18.153Z,10.38
2023-02-03T19:52:19.707Z,14.40
2023-02-03T19:53:21.742Z,7.25
2023-02-03T19:54:23.368Z,10.63
2023-02-03T19:55:31.002Z,10.25
2023-02-03T19:56:35.132Z,11.77
2023-02-03T19:57:36.703Z,11.15
2023-02-03T19:58:41.228Z,13.10
2023-02-03T19:59:42.929Z,8.68
2023-02-03T20:00:47.783Z,9.95
2023-02-03T20:01:52.317Z,10.88
2023-02-03T20:02:58.939Z,11.75
2023-02-03T20:04:01.036Z,10.98
2023-02-03T20:05:02.796Z,12.30
2023-02-03T20:06:06.655Z,11.50
2023-02-03T20:07:09.802Z,10.40
2023-02-03T20:08:14.443Z,9.68
2023-02-03T20:09:17.397Z,10.75
2023-02-03T20:11:36.538Z,11.60
2023-02-03T20:12:43.110Z,10.52
2023-02-03T20:13:44.797Z,11.63
2023-02-03T20:14:48.278Z,10.50
2023-02-03T20:15:50.263Z,11.88
2023-02-03T20:16:52.489Z,10.63
2023-02-03T20:17:54.087Z,10.07
2023-02-03T20:18:56.584Z,10.95
2023-02-03T20:19:58.419Z,10.20
2023-02-03T20:21:00.326Z,9.55
2023-02-03T20:22:02.118Z,9.52
2023-02-03T20:23:03.866Z,13.93
2023-02-03T20:24:06.115Z,13.10
2023-02-03T20:25:07.835Z,11.77
2023-02-03T20:26:09.421Z,11.15
2023-02-03T20:27:11.553Z,9.38
2023-02-03T20:28:13.439Z,10.48
2023-02-03T20:29:15.040Z,10.05
2023-02-03T20:30:17.699Z,10.75
2023-02-03T20:31:19.732Z,12.25
2023-02-03T20:32:21.456Z,9.88
2023-02-03T20:33:26.751Z,12.18
2023-02-03T20:34:30.528Z,10.73
2023-02-03T20:35:32.299Z,12.23
2023-02-03T20:36:34.257Z,11.40
2023-02-03T20:37:36.400Z,12.73
2023-02-03T20:38:39.459Z,11.60
2023-02-03T20:39:41.422Z,12.73
2023-02-03T20:40:43.982Z,12.95
2023-02-03T20:41:51.183Z,15.60
2023-02-03T20:42:56.997Z,15.15
2023-02-03T20:43:58.652Z,14.85
2023-02-03T20:45:00.241Z,16.33
2023-02-03T20:46:01.780Z,12.30
2023-02-03T20:47:03.667Z,12.32
2023-02-03T20:48:09.981Z,10.95
2023-02-03T20:49:15.021Z,11.40
2023-02-03T20:50:20.213Z,12.70
2023-02-03T20:51:22.421Z,10.27
2023-02-03T20:52:24.069Z,14.38
2023-02-03T20:53:34.862Z,12.25
2023-02-03T20:54:37.219Z,12.77
2023-02-03T20:55:38.765Z,14.38
2023-02-03T20:56:40.372Z,12.88
2023-02-03T20:57:42.238Z,15.35
2023-02-03T20:58:44.830Z,12.65
2023-02-03T20:59:49.104Z,10.73
2023-02-03T21:00:51.705Z,11.40
2023-02-03T21:01:54.206Z,14.38
2023-02-03T21:03:14.975Z,11.10
2023-02-03T21:04:41.732Z,12.48
2023-02-03T21:05:45.521Z,10.88
2023-02-03T21:06:47.152Z,11.55
2023-02-03T21:07:48.713Z,12.85
2023-02-03T21:08:50.255Z,10.73
2023-02-03T21:09:54.147Z,10.32
2023-02-03T21:10:55.749Z,11.77
2023-02-03T21:11:57.422Z,12.27
2023-02-03T21:12:59.043Z,11.85
2023-02-03T21:14:04.008Z,11.13
2023-02-03T21:15:21.701Z,13.02
2023-02-03T21:16:38.660Z,12.35
2023-02-03T21:17:40.500Z,12.95
2023-02-03T21:19:03.526Z,13.80
2023-02-03T21:20:24.155Z,13.57
2023-02-03T21:21:34.934Z,7.57
2023-02-03T21:22:36.486Z,12.45
2023-02-03T21:23:40.472Z,10.60
2023-02-03T21:24:45.836Z,14.10
2023-02-03T21:25:47.645Z,13.80
2023-02-03T21:26:49.725Z,14.02
2023-02-03T21:27:51.807Z,13.15
2023-02-03T21:28:57.908Z,11.25
2023-02-03T21:30:02.734Z,11.07
2023-02-03T21:31:05.642Z,10.23
2023-02-03T21:32:14.760Z,12.20
2023-02-03T21:33:27.770Z,11.50
2023-02-03T21:34:34.941Z,14.38
2023-02-03T21:35:37.439Z,11.18
2023-02-03T21:36:39.078Z,11.40
2023-02-03T21:37:41.705Z,12.40
2023-02-03T21:38:43.369Z,11.23
2023-02-03T21:39:46.409Z,7.60
2023-02-03T21:40:48.022Z,10.55
2023-02-03T21:41:50.865Z,10.90
2023-02-03T21:42:54.582Z,10.52
2023-02-03T21:43:58.070Z,12.15
2023-02-03T21:45:00.602Z,12.98
2023-02-03T21:46:05.450Z,10.45
2023-02-03T21:47:18.143Z,13.25
2023-02-03T21:48:37.356Z,9.38
2023-02-03T21:49:41.160Z,10.50
2023-02-03T21:50:44.081Z,9.27
2023-02-03T21:51:46.324Z,11.70
2023-02-03T21:52:47.904Z,18.98
2023-02-03T21:53:56.406Z,11.05
2023-02-03T21:54:58.243Z,9.80
2023-02-03T21:56:15.316Z,10.50
2023-02-03T21:57:17.244Z,12.13
2023-02-03T21:58:31.448Z,12.38
2023-02-03T21:59:42.989Z,10.25
2023-02-03T22:00:50.248Z,9.80
2023-02-03T22:01:55.220Z,9.73
2023-02-03T22:03:01.223Z,10.93
2023-02-03T22:04:04.524Z,10.57
2023-02-03T22:05:15.392Z,10.48
2023-02-03T22:06:28.945Z,10.82
2023-02-03T22:07:31.285Z,11.70
2023-02-03T22:08:36.301Z,10.93
2023-02-03T22:09:37.874Z,10.45
2023-02-03T22:10:39.420Z,8.93
2023-02-03T22:11:43.279Z,11.13
2023-02-03T22:12:46.222Z,12.43
2023-02-03T22:13:48.324Z,14.07
2023-02-03T22:14:51.040Z,10.75
2023-02-03T22:15:52.631Z,8.38
2023-02-03T22:16:54.432Z,12.07
2023-02-03T22:17:57.152Z,9.18
2023-02-03T22:18:59.334Z,15.98
2023-02-03T22:20:01.294Z,11.23
2023-02-03T22:21:04.175Z,11.07
2023-02-03T22:22:06.270Z,12.27
2023-02-03T22:23:10.171Z,12.27
2023-02-03T22:24:13.002Z,12.23
2023-02-03T22:25:14.686Z,11.65
2023-02-03T22:26:16.974Z,13.45
2023-02-03T22:27:21.180Z,11.90
2023-02-03T22:28:22.738Z,9.00
2023-02-03T22:29:24.260Z,12.02
2023-02-03T22:30:25.904Z,11.18
2023-02-03T22:31:28.666Z,10.70
2023-02-03T22:32:30.305Z,9.93
2023-02-03T22:33:34.620Z,10.40
2023-02-03T22:34:36.238Z,8.77
2023-02-03T22:35:37.894Z,12.43
2023-02-03T22:36:39.680Z,9.52
2023-02-03T22:37:41.265Z,10.77
2023-02-03T22:38:43.324Z,9.73
2023-02-03T22:39:45.044Z,9.48
2023-02-03T22:40:46.641Z,11.52
2023-02-03T22:41:48.215Z,9.65
2023-02-03T22:42:49.791Z,10.82
2023-02-03T22:43:51.331Z,12.52
2023-02-03T22:44:52.896Z,12.57
2023-02-03T22:45:54.785Z,10.77
2023-02-03T22:46:56.740Z,12.80
2023-02-03T22:48:00.276Z,11.13
2023-02-03T22:49:01.840Z,13.45
2023-02-03T22:50:05.347Z,16.05
2023-02-03T22:51:07.367Z,9.65
2023-02-03T22:52:10.245Z,12.68
2023-02-03T22:53:12.736Z,14.82
2023-02-03T22:54:17.025Z,9.40
2023-02-03T22:55:18.669Z,9.65
2023-02-03T22:56:23.775Z,15.25
2023-02-03T22:57:26.363Z,11.48
2023-02-03T22:58:30.851Z,12.93
2023-02-03T22:59:32.421Z,12.02
2023-02-03T23:00:35.336Z,10.32
2023-02-03T23:01:36.931Z,13.15
2023-02-03T23:02:39.718Z,9.77
2023-02-03T23:03:41.266Z,10.52
2023-02-03T23:04:43.012Z,12.05
2023-02-03T23:05:44.747Z,12.65
2023-02-03T23:06:46.341Z,11.77
2023-02-03T23:07:48.103Z,10.00
2023-02-03T23:08:49.812Z,10.82
2023-02-03T23:09:51.371Z,12.45
2023-02-03T23:10:52.998Z,13.93
2023-02-03T23:11:54.587Z,11.60
2023-02-03T23:12:58.095Z,12.88
2023-02-03T23:13:59.635Z,12.43
2023-02-03T23:15:02.297Z,12.80
2023-02-03T23:16:04.088Z,12.47
2023-02-03T23:17:06.869Z,8.40
2023-02-03T23:18:08.684Z,10.63
2023-02-03T23:19:11.463Z,12.38
2023-02-03T23:20:14.986Z,13.30
2023-02-03T23:21:16.541Z,9.98
2023-02-03T23:22:18.169Z,10.82
2023-02-03T23:23:19.752Z,11.30
2023-02-03T23:24:22.117Z,9.13
2023-02-03T23:25:23.675Z,10.25
2023-02-03T23:26:26.416Z,10.45
2023-02-03T23:27:29.056Z,10.40
2023-02-03T23:28:31.784Z,10.90
2023-02-03T23:29:33.331Z,9.85
2023-02-03T23:30:34.929Z,8.35
2023-02-03T23:31:36.585Z,11.27
2023-02-03T23:32:38.422Z,11.13
2023-02-03T23:33:39.997Z,11.70
2023-02-03T23:35:01.050Z,12.70
2023-02-03T23:36:03.681Z,10.77
2023-02-03T23:37:05.534Z,12.30
2023-02-03T23:38:07.216Z,10.10
2023-02-03T23:39:08.795Z,11.40
2023-02-03T23:40:11.084Z,14.25
2023-02-03T23:41:12.616Z,12.43
2023-02-03T23:42:14.798Z,9.52
2023-02-03T23:43:16.531Z,13.15
2023-02-03T23:44:18.291Z,10.85
2023-02-03T23:45:20.369Z,15.70
2023-02-03T23:46:22.358Z,10.32
2023-02-03T23:47:25.150Z,10.18
2023-02-03T23:48:27.336Z,11.88
2023-02-03T23:49:31.439Z,10.23
2023-02-03T23:50:33.805Z,12.00
2023-02-03T23:51:36.836Z,11.43
2023-02-03T23:52:41.835Z,10.60
2023-02-03T23:53:44.585Z,7.22
2023-02-03T23:54:46.124Z,9.07
2023-02-03T23:55:48.760Z,11.57
2023-02-03T23:56:53.039Z,11.55
2023-02-03T23:57:56.019Z,10.27
2023-02-03T23:58:58.480Z,12.90
